createdAt,value
2023-02-06T00:01:25.764Z,5.83
2023-02-06T00:03:53.253Z,5.73
2023-02-06T00:06:21.002Z,6.77
2023-02-06T00:08:48.481Z,6.07
2023-02-06T00:11:17.001Z,6.70
2023-02-06T00:13:45.202Z,6.73
2023-02-06T00:16:26.307Z,6.33
2023-02-06T00:18:54.094Z,5.60
2023-02-06T00:21:24.618Z,5.87
2023-02-06T00:23:53.344Z,5.97
2023-02-06T00:26:21.057Z,6.97
2023-02-06T00:28:48.953Z,5.70
2023-02-06T00:31:16.534Z,6.03
2023-02-06T00:33:44.252Z,5.90
2023-02-06T00:36:11.723Z,6.30
2023-02-06T00:38:39.623Z,5.90
2023-02-06T00:41:07.193Z,5.97
2023-02-06T00:43:34.743Z,6.83
2023-02-06T00:46:02.443Z,7.73
2023-02-06T00:48:29.975Z,6.43
2023-02-06T00:50:57.560Z,6.97
2023-02-06T00:53:25.053Z,8.20
2023-02-06T00:55:52.591Z,7.33
2023-02-06T00:58:22.194Z,7.03
2023-02-06T01:00:49.709Z,7.90
2023-02-06T01:03:17.719Z,7.10
2023-02-06T01:05:45.174Z,7.20
2023-02-06T01:08:12.811Z,7.67
2023-02-06T01:10:43.939Z,7.77
2023-02-06T01:13:11.950Z,6.70
2023-02-06T01:15:41.627Z,7.63
2023-02-06T01:18:09.165Z,7.27
2023-02-06T01:20:36.766Z,6.73
2023-02-06T01:23:04.748Z,7.37
2023-02-06T01:25:32.320Z,8.63
2023-02-06T01:28:00.025Z,8.10
2023-02-06T01:30:27.634Z,7.93
2023-02-06T01:32:57.103Z,8.53
2023-02-06T01:35:24.529Z,8.03
2023-02-06T01:37:52.010Z,8.40
2023-02-06T01:40:19.537Z,8.63
2023-02-06T01:42:47.023Z,8.63
2023-02-06T01:45:47.100Z,9.47
2023-02-06T01:48:18.283Z,8.47
2023-02-06T01:50:50.273Z,8.87
2023-02-06T01:53:19.084Z,9.07
2023-02-06T01:55:47.192Z,8.87
2023-02-06T01:58:17.755Z,9.33
2023-02-06T02:00:45.683Z,8.40
2023-02-06T02:03:14.246Z,9.53
2023-02-06T02:05:42.633Z,8.37
2023-02-06T02:08:14.219Z,10.13
2023-02-06T02:10:41.677Z,10.30
2023-02-06T02:13:09.092Z,9.87
2023-02-06T02:16:02.959Z,10.60
2023-02-06T02:18:43.952Z,10.43
2023-02-06T02:21:29.546Z,11.77
2023-02-06T02:24:05.746Z,11.00
2023-02-06T02:26:40.017Z,10.80
2023-02-06T02:29:24.465Z,11.20
2023-02-06T02:32:10.598Z,12.43
2023-02-06T02:35:03.335Z,12.17
2023-02-06T02:37:44.572Z,11.47
2023-02-06T02:40:44.400Z,11.80
2023-02-06T02:43:25.516Z,11.33
2023-02-06T02:46:00.069Z,10.60
2023-02-06T02:48:30.539Z,10.70
2023-02-06T02:50:58.941Z,11.60
2023-02-06T02:53:26.743Z,10.60
2023-02-06T02:55:54.912Z,11.43
2023-02-06T02:58:27.539Z,10.47
2023-02-06T03:00:57.243Z,11.07
2023-02-06T03:03:28.825Z,10.57
2023-02-06T03:06:28.697Z,10.17
2023-02-06T03:09:03.524Z,9.30
2023-02-06T03:11:32.083Z,9.63
2023-02-06T03:14:25.942Z,10.30
2023-02-06T03:16:56.855Z,8.93
2023-02-06T03:19:29.982Z,8.57
2023-02-06T03:21:57.523Z,10.10
2023-02-06T03:24:27.392Z,10.67
2023-02-06T03:26:57.540Z,10.50
2023-02-06T03:29:25.225Z,10.23
2023-02-06T03:31:54.347Z,10.23
2023-02-06T03:34:40.606Z,10.43
2023-02-06T03:37:08.364Z,9.60
2023-02-06T03:39:35.840Z,10.10
2023-02-06T03:42:04.182Z,10.57
2023-02-06T03:44:33.745Z,10.40
2023-02-06T03:47:02.448Z,11.13
2023-02-06T03:49:31.294Z,8.83
2023-02-06T03:52:09.973Z,10.90
2023-02-06T03:54:39.697Z,10.40
2023-02-06T03:57:08.985Z,10.17
2023-02-06T03:59:36.494Z,10.53
2023-02-06T04:02:04.776Z,9.20
2023-02-06T04:04:35.487Z,8.67
2023-02-06T04:07:07.373Z,8.40
2023-02-06T04:09:34.907Z,8.40
2023-02-06T04:12:02.309Z,8.27
2023-02-06T04:14:29.786Z,8.20
2023-02-06T04:16:57.248Z,7.87
2023-02-06T04:19:24.675Z,6.17
2023-02-06T04:21:52.126Z,6.20
2023-02-06T04:24:19.566Z,6.60
2023-02-06T04:26:46.950Z,6.57
2023-02-06T04:29:14.440Z,6.80
2023-02-06T04:31:41.915Z,6.77
2023-02-06T04:34:09.448Z,6.93
2023-02-06T04:36:37.334Z,8.03
2023-02-06T04:39:05.262Z,8.17
2023-02-06T04:41:32.700Z,7.43
2023-02-06T04:44:00.224Z,7.27
2023-02-06T04:46:27.730Z,7.67
2023-02-06T04:48:55.216Z,8.67
2023-02-06T04:51:22.685Z,7.87
2023-02-06T04:53:50.129Z,7.97
2023-02-06T04:56:17.568Z,7.83
2023-02-06T04:58:45.102Z,7.90
2023-02-06T05:01:12.645Z,8.03
2023-02-06T05:03:40.170Z,7.57
2023-02-06T05:06:07.874Z,7.67
2023-02-06T05:08:35.363Z,8.47
2023-02-06T05:11:02.803Z,7.97
2023-02-06T05:13:30.311Z,7.97
2023-02-06T05:16:01.493Z,6.83
2023-02-06T05:18:28.960Z,8.20
2023-02-06T05:20:56.371Z,6.70
2023-02-06T05:23:23.829Z,7.57
2023-02-06T05:25:51.228Z,7.83
2023-02-06T05:28:18.793Z,7.47
2023-02-06T05:30:46.416Z,7.13
2023-02-06T05:33:13.951Z,7.47
2023-02-06T05:35:41.830Z,7.37
2023-02-06T05:38:09.280Z,7.60
2023-02-06T05:40:36.715Z,7.63
2023-02-06T05:43:04.518Z,8.30
2023-02-06T05:45:31.991Z,7.50
2023-02-06T05:47:59.485Z,7.90
2023-02-06T05:50:26.964Z,8.33
2023-02-06T05:52:54.448Z,8.43
2023-02-06T05:55:21.948Z,8.53
2023-02-06T05:57:49.510Z,8.43
2023-02-06T06:00:17.157Z,7.83
2023-02-06T06:02:44.648Z,8.13
2023-02-06T06:05:12.096Z,8.97
2023-02-06T06:07:39.642Z,9.50
2023-02-06T06:10:07.334Z,8.97
2023-02-06T06:12:34.894Z,8.47
2023-02-06T06:15:02.287Z,9.50
2023-02-06T06:17:29.929Z,8.93
2023-02-06T06:19:57.368Z,9.03
2023-02-06T06:22:24.926Z,9.63
2023-02-06T06:24:52.441Z,8.83
2023-02-06T06:27:19.936Z,9.77
2023-02-06T06:29:47.374Z,7.93
2023-02-06T06:32:14.820Z,8.67
2023-02-06T06:34:42.278Z,7.50
2023-02-06T06:37:09.862Z,8.27
2023-02-06T06:39:37.309Z,7.67
2023-02-06T06:42:04.849Z,8.87
2023-02-06T06:44:32.745Z,8.20
2023-02-06T06:47:00.366Z,9.37
2023-02-06T06:49:29.018Z,7.47
2023-02-06T06:51:56.668Z,9.00
2023-02-06T06:54:24.091Z,8.67
2023-02-06T06:56:52.070Z,9.10
2023-02-06T06:59:19.579Z,8.87
2023-02-06T07:01:49.008Z,8.67
2023-02-06T07:04:16.475Z,8.83
2023-02-06T07:06:43.957Z,8.13
2023-02-06T07:09:11.415Z,8.90
2023-02-06T07:11:38.985Z,9.57
2023-02-06T07:14:06.424Z,8.67
2023-02-06T07:16:33.986Z,8.70
2023-02-06T07:19:01.488Z,10.17
2023-02-06T07:21:29.152Z,10.80
2023-02-06T07:23:56.557Z,10.90
2023-02-06T07:26:24.107Z,11.03
2023-02-06T07:28:52.794Z,10.23
2023-02-06T07:31:20.881Z,10.23
2023-02-06T07:33:48.881Z,10.53
2023-02-06T07:36:18.623Z,9.90
2023-02-06T07:38:46.065Z,10.03
2023-02-06T07:41:14.282Z,10.57
2023-02-06T07:43:41.705Z,10.73
2023-02-06T07:46:09.267Z,9.93
2023-02-06T07:48:36.812Z,10.67
2023-02-06T07:51:05.398Z,11.30
2023-02-06T07:53:32.834Z,11.07
2023-02-06T07:56:00.505Z,11.03
2023-02-06T07:58:27.969Z,10.30
2023-02-06T08:00:56.188Z,11.53
2023-02-06T08:03:23.864Z,11.10
2023-02-06T08:05:51.328Z,12.13
2023-02-06T08:08:18.744Z,11.57
2023-02-06T08:10:46.390Z,12.73
2023-02-06T08:13:13.796Z,11.93
2023-02-06T08:15:41.495Z,11.77
2023-02-06T08:18:09.448Z,12.97
2023-02-06T08:20:36.997Z,11.57
2023-02-06T08:23:04.466Z,12.00
2023-02-06T08:25:31.936Z,12.17
2023-02-06T08:27:59.338Z,12.17
2023-02-06T08:30:26.928Z,13.70
2023-02-06T08:32:54.366Z,14.07
2023-02-06T08:35:21.853Z,14.07
2023-02-06T08:37:49.280Z,14.30
2023-02-06T08:40:16.867Z,13.53
2023-02-06T08:42:44.301Z,15.10
2023-02-06T08:45:11.758Z,14.67
2023-02-06T08:47:39.174Z,13.50
2023-02-06T08:50:06.894Z,13.77
2023-02-06T08:52:34.306Z,13.80
2023-02-06T08:55:01.858Z,13.77
2023-02-06T08:57:29.398Z,14.33
2023-02-06T08:59:56.870Z,13.47
2023-02-06T09:02:24.368Z,15.03
2023-02-06T09:04:52.132Z,14.10
2023-02-06T09:07:19.553Z,14.47
2023-02-06T09:09:47.045Z,13.70
2023-02-06T09:12:14.503Z,13.87
2023-02-06T09:14:42.403Z,13.97
2023-02-06T09:17:09.847Z,12.40
2023-02-06T09:19:37.359Z,12.60
2023-02-06T09:22:06.937Z,12.57
2023-02-06T09:24:34.764Z,12.03
2023-02-06T09:27:02.221Z,11.30
2023-02-06T09:29:31.975Z,11.87
2023-02-06T09:32:00.289Z,11.77
2023-02-06T09:34:27.906Z,11.73
2023-02-06T09:36:56.917Z,9.50
2023-02-06T09:39:24.717Z,11.17
2023-02-06T09:41:57.078Z,11.37
2023-02-06T09:44:32.613Z,11.57
2023-02-06T09:47:22.102Z,10.00
2023-02-06T09:49:58.901Z,9.07
2023-02-06T09:52:34.426Z,11.10
2023-02-06T09:55:06.648Z,9.33
2023-02-06T09:57:52.712Z,10.33
2023-02-06T10:00:38.817Z,10.50
2023-02-06T10:03:30.955Z,10.60
2023-02-06T10:06:19.340Z,9.97
2023-02-06T10:09:02.409Z,9.53
2023-02-06T10:11:54.506Z,9.70
2023-02-06T10:14:45.379Z,9.20
2023-02-06T10:17:15.882Z,9.43
2023-02-06T10:19:50.304Z,9.90
2023-02-06T10:22:23.649Z,9.67
2023-02-06T10:25:09.932Z,9.67
2023-02-06T10:27:38.513Z,9.27
2023-02-06T10:30:06.133Z,8.80
2023-02-06T10:32:45.424Z,9.67
2023-02-06T10:35:20.490Z,9.17
2023-02-06T10:38:14.629Z,8.70
2023-02-06T10:40:51.707Z,8.83
2023-02-06T10:43:40.647Z,9.43
2023-02-06T10:46:48.054Z,9.30
2023-02-06T10:49:32.470Z,9.03
2023-02-06T10:52:02.043Z,9.63
2023-02-06T10:54:32.824Z,9.93
2023-02-06T10:57:00.702Z,8.97
2023-02-06T10:59:30.833Z,8.37
2023-02-06T11:02:18.146Z,9.20
2023-02-06T11:04:54.724Z,9.40
2023-02-06T11:07:30.418Z,9.67
2023-02-06T11:09:58.133Z,8.80
2023-02-06T11:12:45.904Z,8.23
2023-02-06T11:15:22.857Z,8.10
2023-02-06T11:17:52.356Z,8.47
2023-02-06T11:20:22.067Z,8.33
2023-02-06T11:22:53.023Z,8.67
2023-02-06T11:25:23.063Z,7.93
2023-02-06T11:27:50.771Z,7.90
2023-02-06T11:30:35.527Z,8.17
2023-02-06T11:33:08.085Z,8.07
2023-02-06T11:35:38.968Z,8.23
2023-02-06T11:38:15.547Z,7.37
2023-02-06T11:40:43.668Z,6.87
2023-02-06T11:43:17.197Z,7.83
2023-02-06T11:45:45.556Z,8.20
2023-02-06T11:48:33.394Z,7.30
2023-02-06T11:51:00.983Z,7.77
2023-02-06T11:53:28.455Z,7.20
2023-02-06T11:56:00.463Z,6.70
2023-02-06T11:58:28.711Z,6.77
2023-02-06T12:01:04.323Z,7.67
2023-02-06T12:03:46.364Z,7.87
2023-02-06T12:06:15.788Z,7.83
2023-02-06T12:08:51.000Z,7.00
2023-02-06T12:11:26.673Z,6.30
2023-02-06T12:13:56.970Z,6.70
2023-02-06T12:16:24.871Z,6.87
2023-02-06T12:18:57.606Z,6.10
2023-02-06T12:21:30.193Z,5.77
2023-02-06T12:24:02.021Z,5.60
2023-02-06T12:26:30.556Z,6.07
2023-02-06T12:29:12.776Z,7.40
2023-02-06T12:32:08.890Z,6.27
2023-02-06T12:34:55.964Z,6.07
2023-02-06T12:37:39.836Z,6.53
2023-02-06T12:40:36.421Z,6.73
2023-02-06T12:43:05.598Z,7.40
2023-02-06T12:45:43.342Z,6.90
2023-02-06T12:48:22.534Z,6.70
2023-02-06T12:51:13.242Z,6.03
2023-02-06T12:53:43.921Z,6.83
2023-02-06T12:56:19.622Z,6.33
2023-02-06T12:59:11.350Z,6.93
2023-02-06T13:01:58.187Z,6.87
2023-02-06T13:04:31.440Z,6.30
2023-02-06T13:07:00.796Z,5.93
2023-02-06T13:09:30.170Z,6.53
2023-02-06T13:12:13.684Z,6.47
2023-02-06T13:14:48.215Z,5.80
2023-02-06T13:17:25.595Z,6.17
2023-02-06T13:20:00.865Z,5.23
2023-02-06T13:22:45.161Z,6.27
2023-02-06T13:25:51.346Z,6.60
2023-02-06T13:28:41.910Z,5.90
2023-02-06T13:31:22.333Z,5.90
2023-02-06T13:33:58.673Z,5.47
2023-02-06T13:36:42.947Z,5.20
2023-02-06T13:39:14.652Z,5.53
2023-02-06T13:41:44.722Z,5.57
2023-02-06T13:44:22.518Z,5.83
2023-02-06T13:47:19.796Z,5.77
2023-02-06T13:50:19.810Z,4.93
2023-02-06T13:53:10.190Z,5.90
2023-02-06T13:55:59.850Z,5.23
2023-02-06T13:58:47.760Z,5.50
2023-02-06T14:01:22.250Z,4.93
2023-02-06T14:03:51.424Z,5.37
2023-02-06T14:06:33.298Z,5.37
2023-02-06T14:09:19.455Z,5.37
2023-02-06T14:12:11.309Z,6.67
2023-02-06T14:15:17.483Z,5.50
2023-02-06T14:20:42.671Z,6.17
2023-02-06T14:23:29.294Z,5.13
2023-02-06T14:26:20.184Z,6.73
2023-02-06T14:29:01.333Z,5.63
2023-02-06T14:31:49.111Z,5.90
2023-02-06T14:34:40.816Z,6.43
2023-02-06T14:37:43.761Z,5.60
2023-02-06T14:40:12.561Z,6.07
2023-02-06T14:42:41.710Z,5.13
2023-02-06T14:45:41.010Z,4.77
2023-02-06T14:48:27.947Z,5.40
2023-02-06T14:50:57.248Z,5.43
2023-02-06T14:53:36.092Z,5.67
2023-02-06T14:56:14.909Z,6.03
2023-02-06T14:58:46.298Z,5.67
2023-02-06T15:01:25.599Z,6.40
2023-02-06T15:04:08.006Z,5.90
2023-02-06T15:06:37.768Z,5.70
2023-02-06T15:09:05.773Z,6.20
2023-02-06T15:11:33.585Z,6.00
2023-02-06T15:14:06.447Z,6.70
2023-02-06T15:16:45.815Z,6.60
2023-02-06T15:19:23.525Z,7.10
2023-02-06T15:21:52.100Z,6.67
2023-02-06T15:24:40.090Z,7.67
2023-02-06T15:27:20.042Z,7.17
2023-02-06T15:29:49.968Z,7.60
2023-02-06T15:32:31.910Z,7.13
2023-02-06T15:35:00.437Z,7.20
2023-02-06T15:37:30.065Z,7.70
2023-02-06T15:40:02.594Z,7.03
2023-02-06T15:42:30.251Z,6.97
2023-02-06T15:44:57.794Z,7.27
2023-02-06T15:47:25.415Z,7.50
2023-02-06T15:49:53.301Z,7.60
2023-02-06T15:52:34.419Z,7.73
2023-02-06T15:55:02.237Z,8.60
2023-02-06T15:57:34.840Z,8.23
2023-02-06T16:00:03.175Z,18.90
2023-02-06T16:02:40.435Z,15.20
2023-02-06T16:05:10.010Z,9.20
2023-02-06T16:07:37.609Z,10.07
2023-02-06T16:10:19.725Z,12.47
2023-02-06T16:12:47.448Z,12.13
2023-02-06T16:15:28.971Z,15.40
2023-02-06T16:17:58.394Z,32.80
2023-02-06T16:20:46.989Z,9.73
2023-02-06T16:23:32.364Z,11.13
2023-02-06T16:26:05.574Z,56.53
2023-02-06T16:28:33.107Z,133.00
2023-02-06T16:31:02.079Z,11.27
2023-02-06T16:33:33.815Z,100.60
2023-02-06T16:36:01.522Z,100.23
2023-02-06T16:38:29.125Z,123.80
2023-02-06T16:40:56.836Z,43.30
2023-02-06T16:43:24.485Z,46.30
2023-02-06T16:45:52.580Z,19.67
2023-02-06T16:48:20.213Z,15.80
2023-02-06T16:50:48.397Z,26.87
2023-02-06T16:53:26.556Z,9.83
2023-02-06T16:55:54.069Z,8.83
2023-02-06T16:58:22.440Z,10.00
2023-02-06T17:00:50.932Z,9.80
2023-02-06T17:03:18.612Z,9.20
2023-02-06T17:05:46.723Z,10.40
2023-02-06T17:08:21.806Z,9.43
2023-02-06T17:10:49.475Z,9.40
2023-02-06T17:13:18.072Z,8.57
2023-02-06T17:15:49.157Z,9.23
2023-02-06T17:18:17.767Z,8.90
2023-02-06T17:20:46.507Z,9.60
2023-02-06T17:23:14.736Z,8.43
2023-02-06T17:25:43.657Z,9.10
2023-02-06T17:28:14.092Z,7.87
2023-02-06T17:30:41.844Z,8.40
2023-02-06T17:33:09.469Z,8.83
2023-02-06T17:35:37.866Z,8.57
2023-02-06T17:38:06.098Z,7.37
2023-02-06T17:40:34.503Z,7.37
2023-02-06T17:43:04.615Z,7.00
2023-02-06T17:45:32.585Z,6.77
2023-02-06T17:48:00.185Z,6.63
2023-02-06T17:50:28.397Z,7.00
2023-02-06T17:52:56.356Z,6.33
2023-02-06T17:55:24.142Z,6.63
2023-02-06T17:57:51.642Z,6.37
2023-02-06T18:00:19.936Z,6.23
2023-02-06T18:02:47.560Z,6.53
2023-02-06T18:05:15.173Z,5.93
2023-02-06T18:07:42.895Z,6.47
2023-02-06T18:10:11.296Z,6.73
2023-02-06T18:12:39.581Z,6.13
2023-02-06T18:15:07.327Z,7.00
2023-02-06T18:17:34.987Z,6.40
2023-02-06T18:20:02.747Z,7.07
2023-02-06T18:22:30.288Z,6.57
2023-02-06T18:24:59.494Z,6.70
2023-02-06T18:27:27.168Z,6.77
2023-02-06T18:29:55.438Z,7.03
2023-02-06T18:32:22.938Z,7.43
2023-02-06T18:34:50.375Z,6.80
2023-02-06T18:37:18.172Z,6.83
2023-02-06T18:39:45.598Z,6.60
2023-02-06T18:42:32.207Z,6.80
2023-02-06T18:44:59.662Z,7.10
2023-02-06T18:47:27.165Z,7.70
2023-02-06T18:49:54.999Z,6.93
2023-02-06T18:52:22.489Z,7.27
2023-02-06T18:54:50.097Z,7.27
2023-02-06T18:57:17.595Z,7.87
2023-02-06T18:59:45.219Z,8.40
2023-02-06T19:02:12.713Z,8.87
2023-02-06T19:04:40.697Z,9.50
2023-02-06T19:07:09.096Z,9.17
2023-02-06T19:09:36.603Z,9.57
2023-02-06T19:12:04.479Z,9.70
2023-02-06T19:14:32.080Z,10.43
2023-02-06T19:16:59.666Z,8.90
2023-02-06T19:19:27.236Z,9.83
2023-02-06T19:21:56.284Z,9.73
2023-02-06T19:24:24.104Z,8.33
2023-02-06T19:26:51.602Z,8.07
2023-02-06T19:29:34.883Z,8.17
2023-02-06T19:32:04.522Z,7.33
2023-02-06T19:34:42.003Z,6.37
2023-02-06T19:37:17.234Z,6.30
2023-02-06T19:39:45.073Z,6.13
2023-02-06T19:42:16.991Z,6.53
2023-02-06T19:44:44.700Z,5.77
2023-02-06T19:47:12.245Z,6.10
2023-02-06T19:49:40.068Z,6.10
2023-02-06T19:52:10.987Z,5.63
2023-02-06T19:54:38.487Z,5.50
2023-02-06T19:57:06.077Z,5.23
2023-02-06T19:59:33.622Z,4.87
2023-02-06T20:02:01.924Z,4.80
2023-02-06T20:04:34.768Z,4.53
2023-02-06T20:07:02.300Z,3.43
2023-02-06T20:09:30.660Z,3.43
2023-02-06T20:11:58.715Z,3.60
2023-02-06T20:14:26.902Z,3.60
2023-02-06T20:16:54.620Z,3.17
2023-02-06T20:19:24.875Z,3.33
2023-02-06T20:21:54.766Z,3.40
2023-02-06T20:24:23.998Z,3.23
2023-02-06T20:26:55.622Z,3.23
2023-02-06T20:29:25.035Z,3.20
2023-02-06T20:31:52.801Z,4.27
2023-02-06T20:34:21.870Z,3.80
2023-02-06T20:36:50.168Z,4.17
2023-02-06T20:39:18.219Z,3.77
2023-02-06T20:41:46.026Z,3.60
2023-02-06T20:44:14.169Z,3.30
2023-02-06T20:46:41.902Z,3.60
2023-02-06T20:49:13.922Z,3.77
2023-02-06T20:51:41.559Z,3.20
2023-02-06T20:54:11.534Z,3.87
2023-02-06T20:56:39.884Z,3.93
2023-02-06T20:59:08.099Z,3.70
2023-02-06T21:01:35.766Z,3.50
2023-02-06T21:04:06.966Z,4.00
2023-02-06T21:06:35.292Z,3.50
2023-02-06T21:09:03.219Z,3.97
2023-02-06T21:11:35.919Z,4.37
2023-02-06T21:14:04.340Z,4.10
2023-02-06T21:16:32.270Z,3.90
2023-02-06T21:18:59.910Z,3.73
2023-02-06T21:21:27.462Z,4.07
2023-02-06T21:23:58.793Z,3.90
2023-02-06T21:26:27.430Z,3.40
2023-02-06T21:28:55.736Z,3.90
2023-02-06T21:31:24.237Z,3.60
2023-02-06T21:33:52.404Z,4.00
2023-02-06T21:36:21.277Z,4.20
2023-02-06T21:38:48.745Z,3.80
2023-02-06T21:41:17.482Z,4.17
2023-02-06T21:43:45.568Z,3.90
2023-02-06T21:46:13.731Z,4.13
2023-02-06T21:48:41.673Z,4.13
2023-02-06T21:51:10.274Z,3.93
2023-02-06T21:53:37.728Z,4.53
2023-02-06T21:56:09.481Z,4.53
2023-02-06T21:58:37.537Z,4.40
2023-02-06T22:01:08.798Z,3.80
2023-02-06T22:03:36.741Z,4.73
2023-02-06T22:06:11.866Z,4.97
2023-02-06T22:08:40.294Z,5.57
2023-02-06T22:11:11.848Z,5.20
2023-02-06T22:13:39.781Z,4.97
2023-02-06T22:16:08.142Z,4.80
2023-02-06T22:18:35.691Z,4.93
2023-02-06T22:21:04.370Z,4.80
2023-02-06T22:23:31.921Z,5.53
2023-02-06T22:25:59.330Z,6.07
2023-02-06T22:28:26.933Z,5.97
2023-02-06T22:30:54.445Z,6.77
2023-02-06T22:33:22.002Z,5.80
2023-02-06T22:35:49.426Z,6.80
2023-02-06T22:38:16.984Z,6.77
2023-02-06T22:40:44.413Z,6.60
2023-02-06T22:43:11.939Z,7.10
2023-02-06T22:45:39.562Z,6.43
2023-02-06T22:48:07.171Z,6.40
2023-02-06T22:50:36.576Z,6.93
2023-02-06T22:53:22.640Z,6.87
2023-02-06T22:56:09.307Z,7.90
2023-02-06T22:58:36.795Z,7.50
2023-02-06T23:01:04.661Z,7.27
2023-02-06T23:03:32.544Z,7.70
2023-02-06T23:06:03.497Z,6.93
2023-02-06T23:08:31.394Z,7.00
2023-02-06T23:10:58.857Z,7.67
2023-02-06T23:13:26.364Z,6.90
2023-02-06T23:15:56.094Z,7.43
2023-02-06T23:18:23.877Z,7.33
2023-02-06T23:20:55.343Z,7.60
2023-02-06T23:23:23.079Z,7.97
2023-02-06T23:25:50.682Z,6.80
2023-02-06T23:28:18.189Z,7.90
2023-02-06T23:30:45.742Z,7.53
2023-02-06T23:33:13.240Z,8.93
2023-02-06T23:35:41.097Z,7.63
2023-02-06T23:38:09.132Z,7.23
2023-02-06T23:40:36.977Z,7.50
2023-02-06T23:43:04.833Z,6.90
2023-02-06T23:45:32.447Z,7.70
2023-02-06T23:47:59.953Z,7.00
2023-02-06T23:50:27.583Z,7.20
2023-02-06T23:52:55.168Z,7.23
2023-02-06T23:55:24.952Z,6.80
2023-02-06T23:57:52.466Z,7.10
